Time;durP1;ratioP1;P1;durP2;ratioP2;P2;SDS_P1;SDS_P2;PMS_P1;PMS_P2;Temp;Humidity;BMP_temperature;BMP_pressure;BME280_temperature;BME280_humidity;BME280_pressure;Samples;Min_cycle;Max_cycle;Signal;HPM_P1;HPM_P2
2023/10/11 00:00:57;;;;;;;14.47;8.30;;;;;;;13.67;94.34;98487.97;4203727;28;20621;-89
2023/10/11 00:03:05;;;;;;;14.40;8.80;;;;;;;13.65;94.41;98489.91;4209003;28;20720;-90
2023/10/11 00:05:10;;;;;;;14.53;9.13;;;;;;;13.65;94.40;98481.19;4191654;28;20617;-90
2023/10/11 00:07:18;;;;;;;17.17;9.13;;;;;;;13.65;94.74;98489.91;4201028;28;20704;-89
2023/10/11 00:09:34;;;;;;;19.53;9.60;;;;;;;13.65;94.67;98492.50;4215391;28;20627;-89
2023/10/11 00:11:38;;;;;;;14.77;8.53;;;;;;;13.67;95.10;98497.66;4210158;28;20617;-89
2023/10/11 00:13:41;;;;;;;16.67;9.83;;;;;;;13.67;94.73;98498.47;4202749;28;20632;-91
2023/10/11 00:15:48;;;;;;;21.30;10.43;;;;;;;13.66;94.90;98483.69;4206023;28;20638;-90
2023/10/11 00:17:52;;;;;;;16.90;9.70;;;;;;;13.65;94.64;98489.91;4185937;28;20735;-90
2023/10/11 00:19:55;;;;;;;17.70;10.30;;;;;;;13.63;94.73;98485.69;4193864;28;20720;-90
2023/10/11 00:21:59;;;;;;;21.13;9.30;;;;;;;13.62;95.46;98486.69;4200772;28;20626;-89
2023/10/11 00:24:04;;;;;;;14.50;8.40;;;;;;;13.61;95.31;98476.31;4214641;28;20627;-90
2023/10/11 00:26:07;;;;;;;15.90;8.90;;;;;;;13.62;95.43;98485.81;4200453;28;20637;-90
2023/10/11 00:28:14;;;;;;;16.30;9.67;;;;;;;13.64;95.75;98481.31;4203601;28;20638;-89
2023/10/11 00:30:18;;;;;;;19.40;9.70;;;;;;;13.63;95.95;98484.88;4215673;28;21232;-90
2023/10/11 00:32:22;;;;;;;19.83;10.63;;;;;;;13.64;95.50;98481.31;4200022;28;21299;-90
2023/10/11 00:34:25;;;;;;;14.70;9.70;;;;;;;13.66;96.33;98480.22;4192240;28;20664;-89
2023/10/11 00:36:29;;;;;;;16.50;9.20;;;;;;;13.65;96.14;98479.41;4205638;28;20724;-90
2023/10/11 00:38:42;;;;;;;18.33;10.37;;;;;;;13.64;96.51;98476.91;4189041;28;20651;-90
2023/10/11 00:41:00;;;;;;;18.00;10.03;;;;;;;13.67;96.32;98482.75;4201040;28;20629;-89
2023/10/11 00:43:06;;;;;;;22.50;10.63;;;;;;;13.64;96.55;98476.06;4189879;28;20629;-89
2023/10/11 00:45:16;;;;;;;17.00;10.30;;;;;;;13.63;96.73;98469.16;4197312;28;20762;-90
2023/10/11 00:47:20;;;;;;;16.77;9.53;;;;;;;13.60;95.57;98458.91;4187945;28;20749;-90
2023/10/11 00:49:34;;;;;;;15.10;8.97;;;;;;;13.59;94.75;98454.59;4184426;28;20631;-89
2023/10/11 00:51:39;;;;;;;17.90;9.13;;;;;;;13.60;95.87;98462.34;4196686;28;20626;-89
2023/10/11 00:53:42;;;;;;;16.23;9.87;;;;;;;13.63;96.02;98469.16;4200948;28;20628;-89
2023/10/11 00:55:45;;;;;;;20.93;10.23;;;;;;;13.63;96.33;98461.28;4192211;28;20625;-90
2023/10/11 00:57:53;;;;;;;16.90;9.53;;;;;;;13.66;95.77;98467.13;4218354;28;21062;-90
2023/10/11 00:59:57;;;;;;;17.40;10.10;;;;;;;13.67;96.09;98460.94;4206213;28;21098;-90
2023/10/11 01:02:00;;;;;;;17.50;9.80;;;;;;;13.67;96.67;98463.56;4203481;28;20632;-89
2023/10/11 01:04:06;;;;;;;16.10;9.10;;;;;;;13.66;95.94;98460.09;4206776;28;20637;-90
2023/10/11 01:06:11;;;;;;;18.83;10.70;;;;;;;13.66;96.29;98456.66;4198927;28;20643;-90
2023/10/11 01:08:14;;;;;;;20.40;10.67;;;;;;;13.66;96.55;98460.09;4218066;28;20673;-90
2023/10/11 01:10:20;;;;;;;20.10;9.90;;;;;;;13.65;96.74;98460.19;4182740;28;20614;-90
2023/10/11 01:12:23;;;;;;;17.03;9.93;;;;;;;13.66;96.53;98454.84;4192745;28;20632;-90
2023/10/11 01:14:34;;;;;;;15.83;10.10;;;;;;;13.66;97.02;98462.72;4213823;28;20648;-90
2023/10/11 01:16:39;;;;;;;18.67;11.10;;;;;;;13.67;96.41;98455.72;4198291;28;20639;-90
2023/10/11 01:18:42;;;;;;;18.30;10.57;;;;;;;13.68;96.28;98462.59;4197611;28;20649;-87
2023/10/11 01:20:47;;;;;;;15.87;9.63;;;;;;;13.70;96.94;98464.16;4200566;28;20658;-87
2023/10/11 01:22:50;;;;;;;17.63;9.60;;;;;;;13.69;96.67;98454.63;4197340;28;20652;-87
2023/10/11 01:24:55;;;;;;;14.60;9.50;;;;;;;13.69;97.21;98459.84;4190546;28;21765;-87
2023/10/11 01:26:57;;;;;;;17.83;9.27;;;;;;;13.67;97.10;98453.91;4188944;28;20624;-87
2023/10/11 01:29:01;;;;;;;20.17;10.57;;;;;;;13.67;96.97;98455.72;4217100;28;20620;-87
2023/10/11 01:31:08;;;;;;;14.87;9.03;;;;;;;13.67;97.58;98455.72;4187978;28;20731;-87
2023/10/11 01:33:12;;;;;;;19.53;9.83;;;;;;;13.67;97.49;98451.28;4183371;28;20618;-87
2023/10/11 01:35:19;;;;;;;17.13;9.60;;;;;;;13.69;97.65;98449.38;4195402;28;21199;-87
2023/10/11 01:37:26;;;;;;;14.53;8.57;;;;;;;13.71;97.49;98457.97;4187954;28;20634;-87
2023/10/11 01:39:32;;;;;;;18.77;11.73;;;;;;;13.70;97.50;98451.06;4218146;28;21067;-87
2023/10/11 01:41:40;;;;;;;17.00;9.20;;;;;;;13.70;97.41;98450.22;4186319;28;20985;-87
2023/10/11 01:43:46;;;;;;;12.87;8.20;;;;;;;13.70;97.39;98440.56;4183215;28;20668;-87
2023/10/11 01:45:49;;;;;;;20.13;10.23;;;;;;;13.68;97.76;98452.97;4217393;28;20660;-87
2023/10/11 01:47:56;;;;;;;13.73;8.70;;;;;;;13.68;97.29;98450.34;4200653;28;20700;-87
2023/10/11 01:50:00;;;;;;;15.13;8.77;;;;;;;13.68;97.04;98450.34;4215896;28;20620;-87
2023/10/11 01:52:06;;;;;;;16.80;9.83;;;;;;;13.68;96.99;98442.47;4214279;28;20625;-87
2023/10/11 01:54:11;;;;;;;16.40;8.70;;;;;;;13.69;96.70;98443.31;4185858;28;20677;-87
2023/10/11 01:56:13;;;;;;;14.10;8.60;;;;;;;13.69;96.68;98443.31;4188849;28;20733;-87
2023/10/11 01:58:16;;;;;;;13.73;8.90;;;;;;;13.69;97.19;98438.88;4202541;28;20731;-86
2023/10/11 02:00:29;;;;;;;13.20;8.57;;;;;;;13.69;96.70;98443.31;4188492;28;20734;-87
2023/10/11 02:02:35;;;;;;;15.27;8.03;;;;;;;13.69;96.92;98438.06;4197460;28;21007;-87
2023/10/11 02:04:40;;;;;;;14.80;7.63;;;;;;;13.68;96.48;98436.38;4196118;28;20720;-86
2023/10/11 02:06:43;;;;;;;14.73;8.90;;;;;;;13.65;97.21;98432.22;4188039;28;20675;-87
2023/10/11 02:08:45;;;;;;;13.23;8.97;;;;;;;13.64;96.30;98438.41;4189907;28;20646;-86
2023/10/11 02:10:50;;;;;;;16.13;8.33;;;;;;;13.65;96.33;98432.22;4213678;28;20728;-86
2023/10/11 02:12:55;;;;;;;15.33;9.17;;;;;;;13.63;96.51;98430.66;4199656;28;20658;-86
2023/10/11 02:15:01;;;;;;;24.17;9.30;;;;;;;13.59;96.28;98423.13;4204026;28;20660;-86
2023/10/11 02:17:06;;;;;;;16.73;8.90;;;;;;;13.59;96.63;98431.00;4184598;28;20622;-86
2023/10/11 02:19:09;;;;;;;20.83;9.30;;;;;;;13.58;96.15;98431.97;4197750;28;20693;-86
2023/10/11 02:21:13;;;;;;;20.37;10.00;;;;;;;13.56;96.20;98421.59;4199868;28;20736;-86
2023/10/11 02:23:17;;;;;;;18.87;9.50;;;;;;;13.55;96.04;98424.34;4181175;28;20696;-86
2023/10/11 02:25:24;;;;;;;15.70;8.20;;;;;;;13.55;96.75;98425.16;4215409;28;21189;-86
2023/10/11 02:27:32;;;;;;;18.97;9.80;;;;;;;13.54;96.41;98426.09;4189035;28;20633;-90
2023/10/11 02:29:35;;;;;;;17.37;8.20;;;;;;;13.53;96.54;98424.47;4201813;28;21204;-89
2023/10/11 02:31:39;;;;;;;14.10;8.73;;;;;;;13.52;96.59;98427.19;4189157;28;20662;-89
2023/10/11 02:33:42;;;;;;;12.93;8.27;;;;;;;13.52;95.95;98429.81;4212565;28;20665;-89
2023/10/11 02:35:53;;;;;;;17.73;9.00;;;;;;;13.53;96.77;98428.84;4182964;28;20684;-89
2023/10/11 02:37:58;;;;;;;15.70;8.20;;;;;;;13.51;96.12;98420.28;4219035;28;20659;-89
2023/10/11 02:40:06;;;;;;;17.60;8.80;;;;;;;13.49;96.61;98428.25;4203560;28;20657;-87
2023/10/11 02:42:09;;;;;;;17.27;9.33;;;;;;;13.46;96.50;98425.84;4201968;28;20688;-88
2023/10/11 02:44:14;;;;;;;15.43;8.77;;;;;;;13.45;96.14;98431.19;4202827;28;20645;-88
2023/10/11 02:46:17;;;;;;;13.70;9.30;;;;;;;13.43;96.52;98428.69;4196855;28;24369;-89
2023/10/11 02:48:20;;;;;;;17.13;8.50;;;;;;;13.41;96.51;98425.38;4182571;28;20666;-89
2023/10/11 02:50:25;;;;;;;15.50;9.33;;;;;;;13.40;95.71;98428.09;4203194;28;20653;-89
2023/10/11 02:52:29;;;;;;;15.00;8.43;;;;;;;13.37;96.59;98421.28;4181067;28;20677;-88
2023/10/11 02:54:38;;;;;;;15.33;7.83;;;;;;;13.35;96.59;98427.59;4203800;28;20694;-89
2023/10/11 02:56:47;;;;;;;16.20;8.70;;;;;;;13.34;97.08;98420.69;4188732;28;20716;-89
2023/10/11 02:58:52;;;;;;;16.87;8.50;;;;;;;13.31;96.66;98418.28;4201695;28;20673;-89
2023/10/11 03:00:59;;;;;;;22.33;9.80;;;;;;;13.30;96.79;98425.31;4200968;28;21060;-89
2023/10/11 03:03:22;;;;;;;15.80;8.90;;;;;;;13.29;96.26;98423.66;4198586;28;20635;-89
2023/10/11 03:05:28;;;;;;;15.00;8.50;;;;;;;13.28;96.13;98418.53;4202631;28;20644;-89
2023/10/11 03:07:33;;;;;;;11.73;7.47;;;;;;;13.26;97.26;98418.63;4215012;28;20624;-88
2023/10/11 03:09:40;;;;;;;20.33;10.00;;;;;;;13.27;96.80;98420.28;4186794;28;21210;-90
2023/10/11 03:11:45;;;;;;;15.37;8.17;;;;;;;13.26;97.35;98415.16;4200524;28;20625;-89
2023/10/11 03:13:48;;;;;;;15.50;8.70;;;;;;;13.25;96.92;98413.50;4201886;28;20623;-88
2023/10/11 03:15:55;;;;;;;15.60;9.17;;;;;;;13.24;97.31;98414.44;4216276;28;20664;-89
2023/10/11 03:18:06;;;;;;;13.10;8.13;;;;;;;13.25;97.10;98416.97;4199679;28;20637;-89
2023/10/11 03:20:22;;;;;;;13.53;7.83;;;;;;;13.24;96.14;98414.44;4183853;28;21477;-89
2023/10/11 03:22:28;;;;;;;18.03;8.93;;;;;;;13.22;96.81;98416.34;4180860;28;20728;-89
2023/10/11 03:24:33;;;;;;;17.00;8.60;;;;;;;13.21;95.55;98417.28;4215430;28;20614;-89
2023/10/11 03:26:38;;;;;;;14.23;7.70;;;;;;;13.19;97.12;98406.09;4188464;28;20621;-88
2023/10/11 03:28:41;;;;;;;14.00;8.13;;;;;;;13.16;96.28;98414.19;4196513;28;20634;-88
2023/10/11 03:30:46;;;;;;;14.37;8.30;;;;;;;13.16;95.91;98415.97;4197225;28;20677;-88
2023/10/11 03:32:49;;;;;;;13.67;8.23;;;;;;;13.17;96.23;98412.38;4201610;28;20644;-90
2023/10/11 03:34:55;;;;;;;14.77;8.47;;;;;;;13.17;96.26;98412.38;4203909;28;20690;-89
2023/10/11 03:37:00;;;;;;;22.13;9.83;;;;;;;13.15;97.45;98409.88;4207451;28;20641;-86
2023/10/11 03:39:09;;;;;;;12.90;7.93;;;;;;;13.16;96.68;98408.94;4198319;28;20664;-86
2023/10/11 03:41:15;;;;;;;14.83;7.73;;;;;;;13.17;97.16;98413.25;4214665;28;20624;-86
2023/10/11 03:43:19;;;;;;;16.17;9.07;;;;;;;13.16;96.31;98408.13;4201547;28;20632;-86
2023/10/11 03:45:27;;;;;;;18.00;8.47;;;;;;;13.14;97.52;98405.63;4216202;28;21030;-86
2023/10/11 03:47:31;;;;;;;17.03;8.57;;;;;;;13.15;95.94;98404.66;4202834;28;20635;-86
2023/10/11 03:49:51;;;;;;;13.50;8.23;;;;;;;13.11;95.93;98404.97;4187532;28;20629;-86
2023/10/11 03:51:54;;;;;;;13.10;8.23;;;;;;;13.09;96.82;98399.03;4204779;28;20623;-86
2023/10/11 03:53:57;;;;;;;18.43;8.60;;;;;;;13.07;96.52;98396.53;4201550;28;20622;-86
2023/10/11 03:56:02;;;;;;;14.57;8.40;;;;;;;13.08;95.63;98398.22;4221293;28;20714;-86
2023/10/11 03:58:05;;;;;;;15.37;8.40;;;;;;;13.09;96.15;98399.03;4203315;28;20625;-86
2023/10/11 04:00:24;;;;;;;13.80;8.17;;;;;;;13.06;96.34;98407.94;4195257;28;20654;-86
2023/10/11 04:02:28;;;;;;;14.70;8.40;;;;;;;13.06;96.50;98404.50;4202233;28;21294;-86
2023/10/11 04:04:31;;;;;;;15.13;8.80;;;;;;;13.06;96.21;98399.25;4207503;28;20623;-86
2023/10/11 04:06:35;;;;;;;18.93;8.33;;;;;;;13.05;96.75;98400.19;4218642;28;20623;-86
2023/10/11 04:08:41;;;;;;;14.23;7.67;;;;;;;13.01;96.32;98404.81;4224142;28;20685;-86
2023/10/11 04:10:49;;;;;;;15.70;9.57;;;;;;;12.98;95.42;98406.84;4206945;28;20730;-86
2023/10/11 04:12:53;;;;;;;17.17;9.33;;;;;;;12.95;95.79;98401.81;4212072;28;21129;-86
2023/10/11 04:14:57;;;;;;;16.87;7.93;;;;;;;12.95;95.85;98400.03;4189102;28;21235;-88
2023/10/11 04:17:01;;;;;;;13.43;8.10;;;;;;;12.93;96.64;98398.47;4206919;28;20640;-87
2023/10/11 04:19:08;;;;;;;14.40;9.13;;;;;;;12.89;95.50;98397.88;4190071;28;20658;-88
2023/10/11 04:21:16;;;;;;;14.07;8.07;;;;;;;12.89;96.16;98400.47;4203092;28;20717;-88
2023/10/11 04:23:24;;;;;;;12.43;8.07;;;;;;;12.87;96.75;98399.78;4203838;28;20623;-88
2023/10/11 04:25:32;;;;;;;14.57;9.00;;;;;;;12.84;95.71;98405.22;4205384;28;20640;-88
2023/10/11 04:27:47;;;;;;;15.20;8.47;;;;;;;12.85;95.34;98400.81;4190836;28;20625;-88
2023/10/11 04:29:51;;;;;;;16.57;9.00;;;;;;;12.83;96.92;98398.31;4197375;28;20631;-88
2023/10/11 04:32:09;;;;;;;14.60;8.30;;;;;;;12.84;96.04;98400.00;4208828;28;20631;-88
2023/10/11 04:34:14;;;;;;;15.83;7.90;;;;;;;12.82;96.17;98395.75;4203196;28;22503;-87
2023/10/11 04:36:20;;;;;;;16.00;8.70;;;;;;;12.80;96.85;98397.66;4190908;28;20987;-88
2023/10/11 04:38:23;;;;;;;14.10;9.57;;;;;;;12.78;97.00;98400.41;4192653;28;20629;-88
2023/10/11 04:40:39;;;;;;;15.63;8.43;;;;;;;12.79;96.92;98402.06;4188654;28;20645;-88
2023/10/11 04:42:44;;;;;;;19.90;8.43;;;;;;;12.76;95.71;98397.06;4205088;28;20632;-87
2023/10/11 04:44:54;;;;;;;10.90;7.60;;;;;;;12.76;96.34;98402.31;4180229;28;20628;-87
2023/10/11 04:47:01;;;;;;;16.50;7.97;;;;;;;12.75;96.20;98407.66;4220839;28;20653;-92
2023/10/11 04:49:18;;;;;;;13.87;8.63;;;;;;;12.74;95.40;98412.03;4190478;28;20798;-92
2023/10/11 04:51:23;;;;;;;14.60;7.97;;;;;;;12.75;95.82;98418.13;4208890;28;20740;-92
2023/10/11 04:53:32;;;;;;;14.17;8.37;;;;;;;12.73;95.99;98420.84;4186708;28;20660;-92
2023/10/11 04:55:37;;;;;;;12.63;8.10;;;;;;;12.71;97.75;98420.09;4201619;28;20630;-92
2023/10/11 04:57:48;;;;;;;15.93;8.47;;;;;;;12.71;96.53;98414.84;4198634;28;20724;-91
2023/10/11 05:00:00;;;;;;;13.57;7.60;;;;;;;12.70;96.75;98410.59;4186601;28;20735;-91
2023/10/11 05:02:08;;;;;;;14.43;8.60;;;;;;;12.68;96.19;98420.31;4213819;28;20626;-91
2023/10/11 05:04:14;;;;;;;15.50;7.57;;;;;;;12.68;97.94;98425.53;4202632;28;20642;-92
2023/10/11 05:06:30;;;;;;;16.60;8.53;;;;;;;12.70;97.85;98422.81;4187567;28;20675;-92
2023/10/11 05:10:55;;;;;;;17.03;7.47;;;;;;;12.68;96.38;98421.28;4196889;28;20628;-92
2023/10/11 05:13:05;;;;;;;14.87;9.37;;;;;;;12.67;96.17;98419.59;4215472;28;20635;-91
2023/10/11 05:15:12;;;;;;;29.20;16.77;;;;;;;12.65;97.42;98422.31;4213920;28;20694;-91
2023/10/11 05:17:31;;;;;;;17.47;10.70;;;;;;;12.64;97.45;98422.44;4205264;28;20628;-91
2023/10/11 05:19:35;;;;;;;16.53;8.87;;;;;;;12.66;96.45;98426.63;4195960;28;20637;-91
2023/10/11 05:21:38;;;;;;;14.83;8.40;;;;;;;12.64;96.12;98428.50;4199667;28;20644;-90
2023/10/11 05:23:52;;;;;;;17.57;8.47;;;;;;;12.64;96.98;98422.44;4204216;28;20678;-90
2023/10/11 05:25:58;;;;;;;14.90;8.90;;;;;;;12.61;96.91;98420.03;4218821;28;21051;-87
2023/10/11 05:28:26;;;;;;;12.67;7.77;;;;;;;12.59;96.17;98417.53;4196491;28;20625;-88
2023/10/11 05:30:30;;;;;;;15.03;7.90;;;;;;;12.58;97.59;98420.25;4176173;28;20664;-90
2023/10/11 05:32:33;;;;;;;18.00;10.40;;;;;;;12.56;97.56;98420.34;4202309;28;20666;-89
2023/10/11 05:34:49;;;;;;;21.43;11.40;;;;;;;12.56;97.19;98414.28;4200028;28;20617;-91
2023/10/11 05:50:57;;;;;;;15.33;9.30;;;;;;;12.50;97.74;98431.25;4202575;28;21291;-89
2023/10/11 05:52:59;;;;;;;16.93;7.93;;;;;;;12.50;96.59;98430.44;4218296;28;20624;-90
2023/10/11 05:55:06;;;;;;;17.30;8.97;;;;;;;12.50;97.84;98436.47;4182515;28;20629;-89
2023/10/11 05:57:13;;;;;;;16.67;8.37;;;;;;;12.51;96.94;98440.78;4201021;28;20620;-90
2023/10/11 05:59:17;;;;;;;14.80;9.03;;;;;;;12.52;96.76;98439.00;4188150;28;21378;-90
2023/10/11 06:01:23;;;;;;;14.97;8.13;;;;;;;12.57;97.20;98436.88;4198105;28;20644;-88
2023/10/11 06:03:28;;;;;;;15.00;8.80;;;;;;;12.64;97.63;98446.81;4202504;28;20624;-90
2023/10/11 06:05:39;;;;;;;15.17;8.80;;;;;;;12.68;96.74;98436.00;4208517;28;20730;-90
2023/10/11 06:07:43;;;;;;;14.33;8.50;;;;;;;12.77;98.06;98445.81;4183561;28;20625;-88
2023/10/11 06:09:50;;;;;;;11.87;8.87;;;;;;;12.85;97.57;98450.56;4208789;28;21063;-89
2023/10/11 06:11:57;;;;;;;13.53;8.10;;;;;;;12.91;97.27;98439.63;4206630;28;20651;-90
2023/10/11 06:14:04;;;;;;;15.27;8.70;;;;;;;13.00;96.76;98436.34;4220120;28;20628;-89
2023/10/11 06:16:07;;;;;;;15.97;8.63;;;;;;;13.08;96.34;98436.63;4182571;28;20637;-89
2023/10/11 06:20:39;;;;;;;12.87;8.47;;;;;;;13.30;97.00;98435.78;4197124;28;20751;-89
2023/10/11 06:22:44;;;;;;;16.33;9.00;;;;;;;13.42;96.53;98445.34;4203009;28;20636;-89
2023/10/11 06:24:47;;;;;;;14.23;9.00;;;;;;;13.55;96.01;98450.56;4195632;28;20633;-90
2023/10/11 06:26:53;;;;;;;18.40;8.17;;;;;;;13.67;95.78;98453.09;4193474;28;20637;-93
2023/10/11 06:29:04;;;;;;;14.17;8.07;;;;;;;13.80;95.28;98451.19;4215197;28;20651;-90
2023/10/11 06:31:06;;;;;;;13.90;8.40;;;;;;;13.92;95.12;98453.75;4216521;28;20735;-89
2023/10/11 06:33:12;;;;;;;17.87;9.70;;;;;;;14.01;94.43;98450.44;4185459;28;20657;-91
2023/10/11 06:35:23;;;;;;;12.30;7.80;;;;;;;14.12;93.98;98450.47;4203585;28;20713;-88
2023/10/11 06:37:29;;;;;;;12.77;8.57;;;;;;;14.26;94.50;98450.25;4187590;28;20613;-91
2023/10/11 06:39:34;;;;;;;15.87;8.67;;;;;;;14.36;92.80;98453.84;4211868;28;20631;-94
2023/10/11 06:41:37;;;;;;;16.23;9.53;;;;;;;14.44;92.58;98459.31;4204758;28;20655;-93
2023/10/11 06:43:39;;;;;;;13.33;8.63;;;;;;;14.54;91.73;98461.09;4182095;28;20627;-90
2023/10/11 06:45:43;;;;;;;12.60;8.13;;;;;;;14.64;90.42;98460.25;4181340;28;20626;-91
2023/10/11 06:47:50;;;;;;;17.53;8.60;;;;;;;14.71;91.74;98458.81;4201639;28;20709;-92
2023/10/11 06:49:54;;;;;;;16.97;8.73;;;;;;;14.85;91.79;98466.41;4191373;28;20741;-94
2023/10/11 06:52:01;;;;;;;13.80;9.10;;;;;;;14.95;92.02;98466.53;4193252;28;20622;-94
2023/10/11 06:54:05;;;;;;;15.07;7.73;;;;;;;15.08;91.55;98461.03;4182647;28;20636;-93
2023/10/11 06:56:16;;;;;;;14.50;9.40;;;;;;;15.20;90.19;98464.50;4205888;28;20626;-92
2023/10/11 06:58:20;;;;;;;15.67;8.03;;;;;;;15.31;89.18;98474.97;4203796;28;21443;-92
2023/10/11 07:00:27;;;;;;;13.37;7.43;;;;;;;15.44;88.74;98465.09;4201944;28;21781;-94
2023/10/11 07:02:31;;;;;;;17.30;8.20;;;;;;;15.55;89.78;98471.16;4190240;28;20679;-93
2023/10/11 07:04:37;;;;;;;13.40;8.40;;;;;;;15.63;89.14;98466.09;4202300;28;20666;-91
2023/10/11 07:06:42;;;;;;;16.40;8.43;;;;;;;15.75;87.80;98467.72;4205241;28;20622;-91
2023/10/11 07:08:53;;;;;;;15.00;8.50;;;;;;;15.86;89.48;98470.28;4201031;28;20630;-88
2023/10/11 07:11:02;;;;;;;12.47;7.70;;;;;;;15.97;89.38;98476.34;4220112;27;20621;-90
2023/10/11 07:13:05;;;;;;;13.90;8.10;;;;;;;16.07;86.67;98472.81;4199347;28;20741;-89
2023/10/11 07:15:09;;;;;;;12.37;7.70;;;;;;;16.17;87.45;98478.13;4198947;28;20684;-86
2023/10/11 07:17:13;;;;;;;12.53;7.83;;;;;;;16.25;86.91;98476.56;4216703;28;20656;-87
2023/10/11 07:19:16;;;;;;;15.10;7.70;;;;;;;16.35;87.75;98471.34;4223973;28;20657;-87
2023/10/11 07:21:20;;;;;;;12.70;8.17;;;;;;;16.47;85.32;98483.47;4188030;28;20749;-86
2023/10/11 07:23:22;;;;;;;12.27;8.00;;;;;;;16.51;85.08;98478.63;4218142;28;20675;-87
2023/10/11 07:25:37;;;;;;;13.87;9.00;;;;;;;16.66;85.85;98482.56;4217750;28;20658;-86
2023/10/11 07:27:41;;;;;;;17.43;8.20;;;;;;;16.80;84.57;98484.03;4201883;28;21203;-87
2023/10/11 07:29:45;;;;;;;17.70;8.70;;;;;;;16.84;84.56;98483.63;4196477;28;20630;-87
2023/10/11 07:31:52;;;;;;;12.63;7.90;;;;;;;16.94;85.62;98489.72;4220362;28;20621;-87
2023/10/11 07:33:56;;;;;;;13.80;7.67;;;;;;;17.10;86.83;98493.53;4201959;28;20691;-87
2023/10/11 07:36:00;;;;;;;15.23;6.97;;;;;;;17.26;84.76;98488.63;4216730;28;20622;-87
2023/10/11 07:38:07;;;;;;;9.80;6.90;;;;;;;17.43;84.45;98487.13;4193427;28;20690;-87
2023/10/11 07:40:20;;;;;;;12.10;7.30;;;;;;;17.47;84.01;98487.53;4204397;28;20626;-86
2023/10/11 07:42:26;;;;;;;11.47;6.90;;;;;;;17.53;83.54;98479.06;4184901;28;20655;-87
2023/10/11 07:44:31;;;;;;;15.10;7.13;;;;;;;17.67;85.06;98483.94;4204185;28;20626;-87
2023/10/11 07:46:34;;;;;;;16.50;7.13;;;;;;;17.81;83.59;98483.50;4218463;28;21495;-87
2023/10/11 07:48:39;;;;;;;19.10;10.37;;;;;;;17.91;83.66;98486.16;4219067;28;21046;-87
2023/10/11 07:50:46;;;;;;;14.73;7.80;;;;;;;17.98;82.59;98494.22;4219105;28;21912;-87
2023/10/11 07:52:49;;;;;;;13.33;7.77;;;;;;;18.06;82.42;98488.22;4202785;28;20682;-87
2023/10/11 07:54:53;;;;;;;10.10;7.50;;;;;;;18.19;83.12;98492.28;4217966;28;20657;-87
2023/10/11 07:56:57;;;;;;;11.90;7.57;;;;;;;18.41;83.72;98485.81;4197188;28;21137;-87
2023/10/11 07:59:07;;;;;;;12.57;7.17;;;;;;;18.60;82.57;98490.06;4190045;28;21419;-87
2023/10/11 08:01:24;;;;;;;12.30;7.47;;;;;;;18.72;83.24;98483.63;4207996;28;20630;-87
2023/10/11 08:03:34;;;;;;;13.87;7.70;;;;;;;18.91;81.02;98486.19;4216225;28;20767;-86
2023/10/11 08:05:45;;;;;;;11.77;6.73;;;;;;;19.03;81.15;98482.41;4219450;28;20699;-87
2023/10/11 08:07:49;;;;;;;12.13;7.10;;;;;;;19.07;80.43;98489.06;4203868;28;21018;-87
2023/10/11 08:09:53;;;;;;;14.23;7.20;;;;;;;19.19;82.34;98479.94;4200086;28;20686;-86
2023/10/11 08:11:58;;;;;;;19.07;8.00;;;;;;;19.27;80.02;98482.69;4215890;28;20616;-87
2023/10/11 08:14:14;;;;;;;11.70;7.67;;;;;;;19.35;79.96;98482.75;4215666;28;20727;-87
2023/10/11 08:16:18;;;;;;;14.23;7.90;;;;;;;19.38;80.89;98489.44;4217371;28;20686;-87
2023/10/11 08:18:23;;;;;;;13.63;8.10;;;;;;;19.57;80.95;98491.09;4184541;28;20622;-87
2023/10/11 08:20:28;;;;;;;12.57;7.50;;;;;;;19.68;82.54;98489.09;4184169;28;21252;-87
2023/10/11 08:22:32;;;;;;;16.53;8.43;;;;;;;19.81;81.17;98492.16;4198475;28;20661;-88
2023/10/11 08:24:45;;;;;;;12.97;7.50;;;;;;;19.85;80.30;98499.66;4189646;28;20718;-87
2023/10/11 08:26:49;;;;;;;12.40;6.57;;;;;;;20.02;80.78;98498.03;4199720;28;21275;-87
2023/10/11 08:28:52;;;;;;;14.90;6.83;;;;;;;20.10;79.06;98488.34;4220757;28;20682;-88
2023/10/11 08:30:57;;;;;;;15.73;7.73;;;;;;;20.24;79.85;98492.25;4202742;28;21172;-87
2023/10/11 08:33:03;;;;;;;19.97;8.23;;;;;;;20.35;78.63;98488.34;4201220;28;20618;-88
2023/10/11 08:35:09;;;;;;;10.10;6.90;;;;;;;20.45;77.66;98489.06;4208497;28;20672;-87
2023/10/11 08:37:11;;;;;;;12.30;5.67;;;;;;;20.57;77.07;98493.13;4184063;28;20622;-87
2023/10/11 08:39:14;;;;;;;11.80;7.50;;;;;;;20.64;77.21;98491.53;4186413;28;21413;-87
2023/10/11 08:41:18;;;;;;;12.30;6.83;;;;;;;20.77;76.96;98491.13;4218206;28;20612;-87
2023/10/11 08:43:22;;;;;;;11.10;6.40;;;;;;;20.86;76.70;98483.88;4197203;28;20768;-87
2023/10/11 08:45:29;;;;;;;9.47;6.20;;;;;;;21.05;75.95;98490.75;4198484;28;20632;-88
2023/10/11 08:47:34;;;;;;;12.30;6.43;;;;;;;21.15;76.60;98489.63;4196743;28;20677;-87
2023/10/11 08:49:41;;;;;;;11.23;6.50;;;;;;;21.28;77.09;98488.19;4185526;28;20739;-87
2023/10/11 08:51:44;;;;;;;12.30;6.97;;;;;;;21.43;77.98;98480.44;4217072;28;20638;-87
2023/10/11 08:53:47;;;;;;;11.03;6.23;;;;;;;21.57;78.09;98478.00;4191793;28;20612;-87
2023/10/11 08:55:56;;;;;;;9.60;6.20;;;;;;;21.63;76.02;98471.22;4221495;28;21242;-86
2023/10/11 08:57:59;;;;;;;9.33;6.13;;;;;;;21.75;77.59;98465.41;4199477;28;20623;-87
2023/10/11 09:00:17;;;;;;;10.83;5.50;;;;;;;21.91;78.69;98465.44;4187369;28;20627;-87
2023/10/11 09:02:23;;;;;;;10.40;5.87;;;;;;;22.11;76.97;98466.75;4199647;28;20688;-87
2023/10/11 09:04:27;;;;;;;11.47;6.70;;;;;;;22.25;75.57;98459.81;4186699;28;20637;-87
2023/10/11 09:06:31;;;;;;;13.50;5.80;;;;;;;22.29;74.70;98463.78;4209545;28;20660;-86
2023/10/11 09:08:35;;;;;;;12.33;6.20;;;;;;;22.38;74.75;98465.44;4186073;28;20628;-88
2023/10/11 09:10:39;;;;;;;10.90;6.50;;;;;;;22.43;73.82;98465.78;4217229;28;21229;-87
2023/10/11 09:12:43;;;;;;;9.20;5.40;;;;;;;22.50;73.82;98469.41;4182979;28;20621;-87
2023/10/11 09:14:58;;;;;;;10.37;5.67;;;;;;;22.71;74.05;98467.03;4213855;28;20661;-88
2023/10/11 09:17:19;;;;;;;13.70;5.87;;;;;;;22.87;71.42;98461.66;4200599;28;21040;-88
2023/10/11 09:19:22;;;;;;;12.23;7.00;;;;;;;23.00;71.37;98464.63;4213492;28;21338;-87
2023/10/11 09:21:29;;;;;;;10.00;5.80;;;;;;;23.10;70.92;98457.28;4203452;28;20632;-88
2023/10/11 09:23:34;;;;;;;15.97;5.67;;;;;;;23.16;68.97;98457.41;4182847;28;20659;-86
2023/10/11 09:25:57;;;;;;;14.00;5.63;;;;;;;23.21;68.14;98461.22;4189880;28;21362;-87
2023/10/11 09:28:01;;;;;;;8.63;4.97;;;;;;;23.30;68.45;98462.84;4216355;28;20683;-86
2023/10/11 09:30:19;;;;;;;9.50;5.03;;;;;;;23.37;68.07;98471.78;4217921;27;20683;-89
2023/10/11 09:32:32;;;;;;;8.67;4.60;;;;;;;23.42;67.36;98463.25;4206441;28;20637;-87
2023/10/11 09:34:41;;;;;;;9.00;5.30;;;;;;;23.39;66.88;98460.94;4218971;28;21035;-88
2023/10/11 09:36:46;;;;;;;9.33;5.57;;;;;;;23.42;67.68;98448.09;4197087;28;21192;-87
2023/10/11 09:38:54;;;;;;;9.37;5.73;;;;;;;23.52;66.70;98455.88;4199975;28;20624;-88
2023/10/11 09:40:58;;;;;;;12.20;5.20;;;;;;;23.54;66.70;98459.19;4202000;28;20675;-87
2023/10/11 09:43:02;;;;;;;13.13;5.33;;;;;;;23.61;66.55;98447.66;4200948;28;20674;-87
2023/10/11 09:45:06;;;;;;;9.70;5.13;;;;;;;23.69;67.43;98458.28;4186801;28;21240;-87
2023/10/11 09:47:16;;;;;;;12.90;5.43;;;;;;;23.81;67.27;98448.88;4186698;28;20622;-87
2023/10/11 09:49:23;;;;;;;11.20;5.17;;;;;;;23.91;66.35;98458.28;4200520;28;20687;-87
2023/10/11 09:51:26;;;;;;;14.43;4.97;;;;;;;24.00;66.25;98451.06;4185300;28;20629;-88
2023/10/11 09:53:31;;;;;;;9.00;5.10;;;;;;;24.03;66.24;98453.38;4182173;28;20619;-87
2023/10/11 09:55:36;;;;;;;11.80;6.17;;;;;;;24.12;66.00;98452.31;4212604;28;20695;-87
2023/10/11 09:57:50;;;;;;;13.03;5.80;;;;;;;24.18;64.94;98461.22;4184583;28;21031;-87
2023/10/11 10:00:03;;;;;;;8.80;4.73;;;;;;;24.25;65.00;98464.00;4199590;28;20628;-87
2023/10/11 10:02:15;;;;;;;10.40;5.20;;;;;;;24.29;64.85;98452.78;4209663;28;20703;-87
2023/10/11 10:04:20;;;;;;;12.77;5.47;;;;;;;24.29;66.31;98449.28;4197208;28;20644;-87
2023/10/11 10:06:25;;;;;;;10.10;5.80;;;;;;;24.37;65.04;98451.91;4196461;28;20638;-88